sensor_id;sensor_type;location;lat;lon;timestamp;P1;durP1;ratioP1;P2;durP2;ratioP2
28343;SDS011;15597;50.914;6.638;2022-10-31T00:00:29;13.25;;;3.75;;
28343;SDS011;15597;50.914;6.638;2022-10-31T00:02:56;8.55;;;3.55;;
28343;SDS011;15597;50.914;6.638;2022-10-31T00:05:21;8.90;;;4.00;;
28343;SDS011;15597;50.914;6.638;2022-10-31T00:07:47;17.30;;;4.47;;
28343;SDS011;15597;50.914;6.638;2022-10-31T00:10:17;8.98;;;3.72;;
28343;SDS011;15597;50.914;6.638;2022-10-31T00:12:44;10.93;;;3.67;;
28343;SDS011;15597;50.914;6.638;2022-10-31T00:15:10;9.43;;;3.85;;
28343;SDS011;15597;50.914;6.638;2022-10-31T00:17:37;10.80;;;4.15;;
28343;SDS011;15597;50.914;6.638;2022-10-31T00:20:03;10.20;;;4.10;;
28343;SDS011;15597;50.914;6.638;2022-10-31T00:22:30;11.43;;;4.35;;
28343;SDS011;15597;50.914;6.638;2022-10-31T00:24:56;11.40;;;3.72;;
28343;SDS011;15597;50.914;6.638;2022-10-31T00:27:22;9.00;;;4.07;;
28343;SDS011;15597;50.914;6.638;2022-10-31T00:29:49;7.80;;;4.00;;
28343;SDS011;15597;50.914;6.638;2022-10-31T00:32:16;9.25;;;3.72;;
28343;SDS011;15597;50.914;6.638;2022-10-31T00:34:44;11.55;;;4.03;;
28343;SDS011;15597;50.914;6.638;2022-10-31T00:37:11;10.27;;;3.78;;
28343;SDS011;15597;50.914;6.638;2022-10-31T00:39:37;10.55;;;4.32;;
28343;SDS011;15597;50.914;6.638;2022-10-31T00:42:03;9.77;;;3.38;;
28343;SDS011;15597;50.914;6.638;2022-10-31T00:44:29;11.20;;;4.25;;
28343;SDS011;15597;50.914;6.638;2022-10-31T00:46:56;10.18;;;3.70;;
28343;SDS011;15597;50.914;6.638;2022-10-31T00:49:22;7.68;;;4.28;;
28343;SDS011;15597;50.914;6.638;2022-10-31T00:51:48;8.68;;;3.83;;
28343;SDS011;15597;50.914;6.638;2022-10-31T00:54:14;9.80;;;4.00;;
28343;SDS011;15597;50.914;6.638;2022-10-31T00:56:40;12.35;;;3.83;;
28343;SDS011;15597;50.914;6.638;2022-10-31T00:59:06;11.38;;;4.35;;
28343;SDS011;15597;50.914;6.638;2022-10-31T01:01:32;11.63;;;4.28;;
28343;SDS011;15597;50.914;6.638;2022-10-31T01:03:59;10.52;;;4.18;;
28343;SDS011;15597;50.914;6.638;2022-10-31T01:06:26;10.00;;;4.35;;
28343;SDS011;15597;50.914;6.638;2022-10-31T01:08:55;12.18;;;3.92;;
28343;SDS011;15597;50.914;6.638;2022-10-31T01:11:22;13.07;;;4.25;;
28343;SDS011;15597;50.914;6.638;2022-10-31T01:13:52;9.88;;;4.00;;
28343;SDS011;15597;50.914;6.638;2022-10-31T01:16:20;13.95;;;3.90;;
28343;SDS011;15597;50.914;6.638;2022-10-31T01:18:49;11.43;;;4.03;;
28343;SDS011;15597;50.914;6.638;2022-10-31T01:21:16;7.80;;;4.22;;
28343;SDS011;15597;50.914;6.638;2022-10-31T01:23:43;9.75;;;4.00;;
28343;SDS011;15597;50.914;6.638;2022-10-31T01:26:19;9.38;;;3.90;;
28343;SDS011;15597;50.914;6.638;2022-10-31T01:31:15;11.43;;;4.35;;
28343;SDS011;15597;50.914;6.638;2022-10-31T01:33:42;10.63;;;4.13;;
28343;SDS011;15597;50.914;6.638;2022-10-31T01:36:16;8.13;;;4.15;;
28343;SDS011;15597;50.914;6.638;2022-10-31T01:38:41;9.35;;;4.40;;
28343;SDS011;15597;50.914;6.638;2022-10-31T01:41:08;9.80;;;4.10;;
28343;SDS011;15597;50.914;6.638;2022-10-31T01:46:17;11.07;;;3.90;;
28343;SDS011;15597;50.914;6.638;2022-10-31T01:48:47;9.77;;;4.30;;
28343;SDS011;15597;50.914;6.638;2022-10-31T01:51:14;8.15;;;4.07;;
28343;SDS011;15597;50.914;6.638;2022-10-31T01:53:44;8.73;;;4.20;;
28343;SDS011;15597;50.914;6.638;2022-10-31T01:56:11;9.60;;;4.30;;
28343;SDS011;15597;50.914;6.638;2022-10-31T01:58:39;12.80;;;4.25;;
28343;SDS011;15597;50.914;6.638;2022-10-31T02:01:05;10.23;;;4.30;;
28343;SDS011;15597;50.914;6.638;2022-10-31T02:03:31;8.57;;;3.90;;
28343;SDS011;15597;50.914;6.638;2022-10-31T02:05:57;10.93;;;4.03;;
28343;SDS011;15597;50.914;6.638;2022-10-31T02:08:28;11.65;;;4.13;;
28343;SDS011;15597;50.914;6.638;2022-10-31T02:10:56;9.23;;;3.80;;
28343;SDS011;15597;50.914;6.638;2022-10-31T02:13:23;9.50;;;4.30;;
28343;SDS011;15597;50.914;6.638;2022-10-31T02:15:54;9.68;;;3.90;;
28343;SDS011;15597;50.914;6.638;2022-10-31T02:18:24;10.60;;;4.00;;
28343;SDS011;15597;50.914;6.638;2022-10-31T02:20:57;11.32;;;4.30;;
28343;SDS011;15597;50.914;6.638;2022-10-31T02:26:44;11.18;;;4.28;;
28343;SDS011;15597;50.914;6.638;2022-10-31T02:37:47;11.00;;;4.32;;
28343;SDS011;15597;50.914;6.638;2022-10-31T02:40:25;9.57;;;3.95;;
28343;SDS011;15597;50.914;6.638;2022-10-31T02:46:02;7.95;;;3.97;;
28343;SDS011;15597;50.914;6.638;2022-10-31T02:48:33;8.30;;;4.40;;
28343;SDS011;15597;50.914;6.638;2022-10-31T02:51:04;10.77;;;4.00;;
28343;SDS011;15597;50.914;6.638;2022-10-31T02:53:31;8.50;;;3.95;;
28343;SDS011;15597;50.914;6.638;2022-10-31T02:56:12;10.10;;;4.40;;
28343;SDS011;15597;50.914;6.638;2022-10-31T02:58:54;8.43;;;4.30;;
28343;SDS011;15597;50.914;6.638;2022-10-31T03:12:38;11.05;;;4.18;;
28343;SDS011;15597;50.914;6.638;2022-10-31T03:15:16;10.18;;;3.75;;
28343;SDS011;15597;50.914;6.638;2022-10-31T03:22:49;10.52;;;4.18;;
28343;SDS011;15597;50.914;6.638;2022-10-31T03:25:16;9.88;;;3.60;;
28343;SDS011;15597;50.914;6.638;2022-10-31T03:27:42;7.50;;;3.88;;
28343;SDS011;15597;50.914;6.638;2022-10-31T03:30:11;9.20;;;4.00;;
28343;SDS011;15597;50.914;6.638;2022-10-31T03:32:55;9.15;;;4.10;;
28343;SDS011;15597;50.914;6.638;2022-10-31T03:35:28;8.77;;;3.72;;
28343;SDS011;15597;50.914;6.638;2022-10-31T03:37:55;7.53;;;3.88;;
28343;SDS011;15597;50.914;6.638;2022-10-31T03:40:26;8.73;;;4.03;;
28343;SDS011;15597;50.914;6.638;2022-10-31T03:43:00;8.55;;;3.70;;
28343;SDS011;15597;50.914;6.638;2022-10-31T03:45:35;9.10;;;4.32;;
28343;SDS011;15597;50.914;6.638;2022-10-31T03:48:07;9.38;;;3.13;;
28343;SDS011;15597;50.914;6.638;2022-10-31T03:50:40;8.05;;;3.80;;
28343;SDS011;15597;50.914;6.638;2022-10-31T03:56:01;8.88;;;3.90;;
28343;SDS011;15597;50.914;6.638;2022-10-31T03:58:36;9.85;;;3.92;;
28343;SDS011;15597;50.914;6.638;2022-10-31T04:01:14;8.95;;;3.80;;
28343;SDS011;15597;50.914;6.638;2022-10-31T04:03:42;8.57;;;3.75;;
28343;SDS011;15597;50.914;6.638;2022-10-31T04:06:12;8.45;;;3.95;;
28343;SDS011;15597;50.914;6.638;2022-10-31T04:08:41;10.25;;;3.97;;
28343;SDS011;15597;50.914;6.638;2022-10-31T04:11:25;9.77;;;4.15;;
28343;SDS011;15597;50.914;6.638;2022-10-31T04:14:22;9.60;;;3.90;;
28343;SDS011;15597;50.914;6.638;2022-10-31T04:16:51;8.55;;;3.65;;
28343;SDS011;15597;50.914;6.638;2022-10-31T04:19:21;11.98;;;4.45;;
28343;SDS011;15597;50.914;6.638;2022-10-31T04:21:46;9.38;;;3.80;;
28343;SDS011;15597;50.914;6.638;2022-10-31T04:24:12;9.23;;;4.35;;
28343;SDS011;15597;50.914;6.638;2022-10-31T04:26:38;6.97;;;3.55;;
28343;SDS011;15597;50.914;6.638;2022-10-31T04:29:05;10.10;;;4.07;;
28343;SDS011;15597;50.914;6.638;2022-10-31T04:31:31;9.07;;;4.20;;
28343;SDS011;15597;50.914;6.638;2022-10-31T04:33:58;8.98;;;3.90;;
28343;SDS011;15597;50.914;6.638;2022-10-31T04:36:24;12.10;;;4.30;;
28343;SDS011;15597;50.914;6.638;2022-10-31T04:38:50;7.82;;;3.55;;
28343;SDS011;15597;50.914;6.638;2022-10-31T04:41:34;8.95;;;4.03;;
28343;SDS011;15597;50.914;6.638;2022-10-31T04:44:06;10.68;;;4.40;;
28343;SDS011;15597;50.914;6.638;2022-10-31T04:46:32;10.52;;;4.15;;
28343;SDS011;15597;50.914;6.638;2022-10-31T04:48:58;11.20;;;3.70;;
28343;SDS011;15597;50.914;6.638;2022-10-31T04:51:23;9.75;;;3.50;;
28343;SDS011;15597;50.914;6.638;2022-10-31T04:53:49;7.15;;;3.50;;
28343;SDS011;15597;50.914;6.638;2022-10-31T04:56:27;10.85;;;3.72;;
28343;SDS011;15597;50.914;6.638;2022-10-31T04:58:59;8.88;;;4.10;;
28343;SDS011;15597;50.914;6.638;2022-10-31T05:01:28;12.05;;;3.75;;
28343;SDS011;15597;50.914;6.638;2022-10-31T05:03:54;12.05;;;4.50;;
28343;SDS011;15597;50.914;6.638;2022-10-31T05:06:20;9.20;;;3.67;;
28343;SDS011;15597;50.914;6.638;2022-10-31T05:08:46;9.27;;;3.58;;
28343;SDS011;15597;50.914;6.638;2022-10-31T05:11:11;8.95;;;3.47;;
28343;SDS011;15597;50.914;6.638;2022-10-31T05:13:38;9.52;;;4.15;;
28343;SDS011;15597;50.914;6.638;2022-10-31T05:16:12;9.38;;;4.13;;
28343;SDS011;15597;50.914;6.638;2022-10-31T05:19:16;7.50;;;3.35;;
28343;SDS011;15597;50.914;6.638;2022-10-31T05:22:14;9.85;;;3.92;;
28343;SDS011;15597;50.914;6.638;2022-10-31T05:24:40;8.65;;;3.60;;
28343;SDS011;15597;50.914;6.638;2022-10-31T05:27:28;8.13;;;3.45;;
28343;SDS011;15597;50.914;6.638;2022-10-31T05:30:16;11.60;;;3.97;;
28343;SDS011;15597;50.914;6.638;2022-10-31T05:32:45;11.25;;;3.85;;
28343;SDS011;15597;50.914;6.638;2022-10-31T05:35:35;11.23;;;3.83;;
28343;SDS011;15597;50.914;6.638;2022-10-31T05:38:26;9.93;;;3.90;;
28343;SDS011;15597;50.914;6.638;2022-10-31T05:40:55;10.38;;;4.18;;
28343;SDS011;15597;50.914;6.638;2022-10-31T05:43:27;9.70;;;4.10;;
28343;SDS011;15597;50.914;6.638;2022-10-31T05:45:54;7.22;;;3.28;;
28343;SDS011;15597;50.914;6.638;2022-10-31T05:48:56;9.50;;;4.18;;
28343;SDS011;15597;50.914;6.638;2022-10-31T05:51:40;7.82;;;3.45;;
28343;SDS011;15597;50.914;6.638;2022-10-31T05:56:41;9.48;;;3.72;;
28343;SDS011;15597;50.914;6.638;2022-10-31T05:59:06;9.00;;;4.25;;
28343;SDS011;15597;50.914;6.638;2022-10-31T06:01:32;8.00;;;3.55;;
28343;SDS011;15597;50.914;6.638;2022-10-31T06:04:03;12.07;;;4.10;;
28343;SDS011;15597;50.914;6.638;2022-10-31T06:06:30;12.00;;;4.13;;
28343;SDS011;15597;50.914;6.638;2022-10-31T06:08:55;11.25;;;4.57;;
28343;SDS011;15597;50.914;6.638;2022-10-31T06:11:22;10.45;;;3.58;;
28343;SDS011;15597;50.914;6.638;2022-10-31T06:14:03;10.50;;;4.00;;
28343;SDS011;15597;50.914;6.638;2022-10-31T06:16:44;7.80;;;4.28;;
28343;SDS011;15597;50.914;6.638;2022-10-31T06:19:39;12.57;;;4.13;;
28343;SDS011;15597;50.914;6.638;2022-10-31T06:22:04;9.95;;;4.20;;
28343;SDS011;15597;50.914;6.638;2022-10-31T06:24:31;13.77;;;4.55;;
28343;SDS011;15597;50.914;6.638;2022-10-31T06:27:02;9.57;;;4.25;;
28343;SDS011;15597;50.914;6.638;2022-10-31T06:29:28;11.02;;;4.10;;
28343;SDS011;15597;50.914;6.638;2022-10-31T06:32:04;11.50;;;4.00;;
28343;SDS011;15597;50.914;6.638;2022-10-31T06:34:33;11.18;;;3.92;;
28343;SDS011;15597;50.914;6.638;2022-10-31T06:36:59;9.32;;;4.10;;
28343;SDS011;15597;50.914;6.638;2022-10-31T06:39:26;10.68;;;4.13;;
28343;SDS011;15597;50.914;6.638;2022-10-31T06:41:52;8.85;;;4.13;;
28343;SDS011;15597;50.914;6.638;2022-10-31T06:44:31;9.80;;;4.93;;
28343;SDS011;15597;50.914;6.638;2022-10-31T06:46:56;10.30;;;4.30;;
28343;SDS011;15597;50.914;6.638;2022-10-31T06:49:48;10.02;;;4.07;;
28343;SDS011;15597;50.914;6.638;2022-10-31T06:52:16;9.25;;;4.47;;
28343;SDS011;15597;50.914;6.638;2022-10-31T06:54:41;10.80;;;4.25;;
28343;SDS011;15597;50.914;6.638;2022-10-31T06:57:07;11.07;;;4.07;;
28343;SDS011;15597;50.914;6.638;2022-10-31T06:59:33;11.68;;;4.43;;
28343;SDS011;15597;50.914;6.638;2022-10-31T07:02:03;12.90;;;4.13;;
28343;SDS011;15597;50.914;6.638;2022-10-31T07:04:29;10.45;;;4.00;;
28343;SDS011;15597;50.914;6.638;2022-10-31T07:06:56;10.00;;;4.28;;
28343;SDS011;15597;50.914;6.638;2022-10-31T07:09:21;11.18;;;4.03;;
28343;SDS011;15597;50.914;6.638;2022-10-31T07:11:47;11.73;;;4.03;;
28343;SDS011;15597;50.914;6.638;2022-10-31T07:14:13;12.15;;;4.20;;
28343;SDS011;15597;50.914;6.638;2022-10-31T07:16:39;8.63;;;3.65;;
28343;SDS011;15597;50.914;6.638;2022-10-31T07:19:05;8.73;;;4.15;;
28343;SDS011;15597;50.914;6.638;2022-10-31T07:21:31;11.60;;;4.50;;
28343;SDS011;15597;50.914;6.638;2022-10-31T07:23:56;10.55;;;4.25;;
28343;SDS011;15597;50.914;6.638;2022-10-31T07:26:40;11.27;;;4.63;;
28343;SDS011;15597;50.914;6.638;2022-10-31T07:29:07;11.82;;;4.60;;
28343;SDS011;15597;50.914;6.638;2022-10-31T07:31:33;9.00;;;4.60;;
28343;SDS011;15597;50.914;6.638;2022-10-31T07:34:04;13.35;;;4.60;;
28343;SDS011;15597;50.914;6.638;2022-10-31T07:36:30;11.38;;;4.07;;
28343;SDS011;15597;50.914;6.638;2022-10-31T07:39:00;7.93;;;3.92;;
28343;SDS011;15597;50.914;6.638;2022-10-31T07:41:29;11.25;;;4.60;;
28343;SDS011;15597;50.914;6.638;2022-10-31T07:43:55;9.65;;;4.55;;
28343;SDS011;15597;50.914;6.638;2022-10-31T07:46:40;10.60;;;4.40;;
28343;SDS011;15597;50.914;6.638;2022-10-31T07:49:25;11.23;;;4.30;;
28343;SDS011;15597;50.914;6.638;2022-10-31T07:52:29;13.15;;;5.40;;
28343;SDS011;15597;50.914;6.638;2022-10-31T07:55:00;12.80;;;4.57;;
28343;SDS011;15597;50.914;6.638;2022-10-31T07:57:26;13.68;;;6.13;;
28343;SDS011;15597;50.914;6.638;2022-10-31T07:59:52;10.35;;;4.90;;
28343;SDS011;15597;50.914;6.638;2022-10-31T08:02:17;12.60;;;5.07;;
28343;SDS011;15597;50.914;6.638;2022-10-31T08:04:55;15.55;;;5.32;;
28343;SDS011;15597;50.914;6.638;2022-10-31T08:07:39;13.63;;;5.65;;
28343;SDS011;15597;50.914;6.638;2022-10-31T08:10:11;15.18;;;5.50;;
28343;SDS011;15597;50.914;6.638;2022-10-31T08:12:39;13.60;;;5.90;;
28343;SDS011;15597;50.914;6.638;2022-10-31T08:15:06;11.38;;;5.15;;
28343;SDS011;15597;50.914;6.638;2022-10-31T08:17:37;10.50;;;5.25;;
28343;SDS011;15597;50.914;6.638;2022-10-31T08:20:03;15.55;;;5.63;;
28343;SDS011;15597;50.914;6.638;2022-10-31T08:22:33;15.13;;;5.40;;
28343;SDS011;15597;50.914;6.638;2022-10-31T08:25:00;17.00;;;5.85;;
28343;SDS011;15597;50.914;6.638;2022-10-31T08:27:26;12.65;;;5.03;;
28343;SDS011;15597;50.914;6.638;2022-10-31T08:29:53;13.75;;;4.90;;
28343;SDS011;15597;50.914;6.638;2022-10-31T08:32:21;12.07;;;5.00;;
28343;SDS011;15597;50.914;6.638;2022-10-31T08:35:10;9.13;;;4.50;;
28343;SDS011;15597;50.914;6.638;2022-10-31T08:38:12;14.85;;;4.80;;
28343;SDS011;15597;50.914;6.638;2022-10-31T08:40:40;10.40;;;4.97;;
28343;SDS011;15597;50.914;6.638;2022-10-31T08:43:06;15.13;;;5.00;;
28343;SDS011;15597;50.914;6.638;2022-10-31T08:45:38;12.65;;;5.60;;
28343;SDS011;15597;50.914;6.638;2022-10-31T08:48:12;10.70;;;4.75;;
28343;SDS011;15597;50.914;6.638;2022-10-31T08:50:40;13.45;;;4.43;;
28343;SDS011;15597;50.914;6.638;2022-10-31T08:53:08;12.38;;;5.47;;
28343;SDS011;15597;50.914;6.638;2022-10-31T08:55:40;12.13;;;5.28;;
28343;SDS011;15597;50.914;6.638;2022-10-31T08:58:22;10.60;;;5.53;;
28343;SDS011;15597;50.914;6.638;2022-10-31T09:00:52;12.85;;;5.13;;
28343;SDS011;15597;50.914;6.638;2022-10-31T09:03:21;13.60;;;5.75;;
28343;SDS011;15597;50.914;6.638;2022-10-31T09:05:49;12.90;;;5.50;;
28343;SDS011;15597;50.914;6.638;2022-10-31T09:08:15;14.43;;;7.00;;
28343;SDS011;15597;50.914;6.638;2022-10-31T09:10:42;15.60;;;5.82;;
28343;SDS011;15597;50.914;6.638;2022-10-31T09:13:10;14.60;;;6.20;;
28343;SDS011;15597;50.914;6.638;2022-10-31T09:20:56;20.00;;;7.68;;
28343;SDS011;15597;50.914;6.638;2022-10-31T09:23:23;13.35;;;5.80;;
28343;SDS011;15597;50.914;6.638;2022-10-31T09:25:50;17.65;;;7.63;;
28343;SDS011;15597;50.914;6.638;2022-10-31T09:28:35;17.38;;;7.47;;
28343;SDS011;15597;50.914;6.638;2022-10-31T09:31:09;14.68;;;6.75;;
28343;SDS011;15597;50.914;6.638;2022-10-31T09:33:49;17.65;;;7.68;;
28343;SDS011;15597;50.914;6.638;2022-10-31T09:36:44;22.10;;;8.20;;
28343;SDS011;15597;50.914;6.638;2022-10-31T09:39:19;19.17;;;9.90;;
28343;SDS011;15597;50.914;6.638;2022-10-31T09:42:50;16.77;;;7.15;;
28343;SDS011;15597;50.914;6.638;2022-10-31T09:45:31;16.38;;;7.07;;
28343;SDS011;15597;50.914;6.638;2022-10-31T09:51:11;17.95;;;8.43;;
28343;SDS011;15597;50.914;6.638;2022-10-31T09:54:14;26.20;;;13.23;;
28343;SDS011;15597;50.914;6.638;2022-10-31T09:56:44;15.25;;;7.82;;
28343;SDS011;15597;50.914;6.638;2022-10-31T09:59:12;26.67;;;11.23;;
28343;SDS011;15597;50.914;6.638;2022-10-31T10:10:26;16.63;;;8.32;;
28343;SDS011;15597;50.914;6.638;2022-10-31T10:22:02;13.75;;;7.28;;
28343;SDS011;15597;50.914;6.638;2022-10-31T10:24:48;16.63;;;7.13;;
28343;SDS011;15597;50.914;6.638;2022-10-31T10:32:24;19.52;;;7.13;;
28343;SDS011;15597;50.914;6.638;2022-10-31T10:34:54;15.45;;;7.35;;
28343;SDS011;15597;50.914;6.638;2022-10-31T10:37:28;16.30;;;7.13;;
28343;SDS011;15597;50.914;6.638;2022-10-31T10:40:06;15.27;;;6.63;;
28343;SDS011;15597;50.914;6.638;2022-10-31T10:42:39;17.73;;;6.97;;
28343;SDS011;15597;50.914;6.638;2022-10-31T10:45:33;15.40;;;6.70;;
28343;SDS011;15597;50.914;6.638;2022-10-31T10:48:25;14.00;;;5.50;;
28343;SDS011;15597;50.914;6.638;2022-10-31T10:51:01;13.65;;;6.40;;
28343;SDS011;15597;50.914;6.638;2022-10-31T10:56:43;20.05;;;6.85;;
28343;SDS011;15597;50.914;6.638;2022-10-31T10:59:19;15.57;;;6.40;;
28343;SDS011;15597;50.914;6.638;2022-10-31T11:01:48;14.52;;;6.18;;
28343;SDS011;15597;50.914;6.638;2022-10-31T11:04:30;17.70;;;6.28;;
28343;SDS011;15597;50.914;6.638;2022-10-31T11:07:05;13.15;;;4.88;;
28343;SDS011;15597;50.914;6.638;2022-10-31T11:09:34;10.68;;;4.72;;
28343;SDS011;15597;50.914;6.638;2022-10-31T11:12:00;15.23;;;5.90;;
28343;SDS011;15597;50.914;6.638;2022-10-31T11:14:55;13.45;;;5.00;;
28343;SDS011;15597;50.914;6.638;2022-10-31T11:17:27;12.25;;;5.30;;
28343;SDS011;15597;50.914;6.638;2022-10-31T11:20:39;12.43;;;5.18;;
28343;SDS011;15597;50.914;6.638;2022-10-31T11:23:18;12.75;;;4.80;;
28343;SDS011;15597;50.914;6.638;2022-10-31T11:25:48;9.77;;;4.43;;
28343;SDS011;15597;50.914;6.638;2022-10-31T11:28:20;12.27;;;4.70;;
28343;SDS011;15597;50.914;6.638;2022-10-31T11:30:55;13.45;;;5.15;;
28343;SDS011;15597;50.914;6.638;2022-10-31T11:33:34;11.88;;;4.85;;
28343;SDS011;15597;50.914;6.638;2022-10-31T11:36:09;10.55;;;4.85;;
28343;SDS011;15597;50.914;6.638;2022-10-31T11:38:41;11.75;;;4.53;;
28343;SDS011;15597;50.914;6.638;2022-10-31T11:43:46;12.05;;;4.82;;
28343;SDS011;15597;50.914;6.638;2022-10-31T11:46:18;10.50;;;4.22;;
28343;SDS011;15597;50.914;6.638;2022-10-31T11:48:48;10.07;;;4.25;;
28343;SDS011;15597;50.914;6.638;2022-10-31T11:51:29;9.00;;;3.65;;
28343;SDS011;15597;50.914;6.638;2022-10-31T11:53:58;10.85;;;3.92;;
28343;SDS011;15597;50.914;6.638;2022-10-31T11:56:28;11.13;;;4.95;;
28343;SDS011;15597;50.914;6.638;2022-10-31T11:59:04;13.10;;;4.05;;
28343;SDS011;15597;50.914;6.638;2022-10-31T12:01:39;11.15;;;4.47;;
28343;SDS011;15597;50.914;6.638;2022-10-31T12:04:11;11.80;;;4.65;;
28343;SDS011;15597;50.914;6.638;2022-10-31T12:06:42;13.30;;;5.32;;
28343;SDS011;15597;50.914;6.638;2022-10-31T12:09:25;12.32;;;4.88;;
28343;SDS011;15597;50.914;6.638;2022-10-31T12:25:50;13.40;;;4.80;;
28343;SDS011;15597;50.914;6.638;2022-10-31T12:39:59;12.38;;;5.13;;
28343;SDS011;15597;50.914;6.638;2022-10-31T12:45:39;14.15;;;5.90;;
28343;SDS011;15597;50.914;6.638;2022-10-31T12:57:01;14.25;;;5.20;;
28343;SDS011;15597;50.914;6.638;2022-10-31T13:00:19;8.73;;;3.90;;
28343;SDS011;15597;50.914;6.638;2022-10-31T13:02:51;18.73;;;5.30;;
28343;SDS011;15597;50.914;6.638;2022-10-31T13:07:58;16.30;;;4.40;;
28343;SDS011;15597;50.914;6.638;2022-10-31T13:10:30;10.20;;;4.32;;
28343;SDS011;15597;50.914;6.638;2022-10-31T13:16:03;13.75;;;4.63;;
28343;SDS011;15597;50.914;6.638;2022-10-31T13:18:40;8.98;;;4.03;;
28343;SDS011;15597;50.914;6.638;2022-10-31T13:21:18;16.60;;;4.30;;
28343;SDS011;15597;50.914;6.638;2022-10-31T13:23:49;14.45;;;4.32;;
28343;SDS011;15597;50.914;6.638;2022-10-31T13:28:56;8.55;;;4.22;;
28343;SDS011;15597;50.914;6.638;2022-10-31T13:31:27;10.50;;;4.10;;
28343;SDS011;15597;50.914;6.638;2022-10-31T13:33:54;8.75;;;3.80;;
28343;SDS011;15597;50.914;6.638;2022-10-31T13:36:38;11.15;;;3.95;;
28343;SDS011;15597;50.914;6.638;2022-10-31T13:41:44;12.05;;;4.22;;
28343;SDS011;15597;50.914;6.638;2022-10-31T13:46:49;10.18;;;4.07;;
28343;SDS011;15597;50.914;6.638;2022-10-31T13:54:38;11.50;;;4.18;;
28343;SDS011;15597;50.914;6.638;2022-10-31T13:57:21;12.07;;;4.20;;
28343;SDS011;15597;50.914;6.638;2022-10-31T13:59:54;10.15;;;3.65;;
28343;SDS011;15597;50.914;6.638;2022-10-31T14:02:34;11.52;;;4.60;;
28343;SDS011;15597;50.914;6.638;2022-10-31T14:05:05;10.32;;;3.83;;
28343;SDS011;15597;50.914;6.638;2022-10-31T14:07:44;10.27;;;3.88;;
28343;SDS011;15597;50.914;6.638;2022-10-31T14:10:28;8.93;;;3.55;;
28343;SDS011;15597;50.914;6.638;2022-10-31T14:13:02;11.38;;;3.60;;
28343;SDS011;15597;50.914;6.638;2022-10-31T14:15:30;10.90;;;3.80;;
28343;SDS011;15597;50.914;6.638;2022-10-31T14:17:57;9.43;;;3.75;;
28343;SDS011;15597;50.914;6.638;2022-10-31T14:28:55;12.55;;;4.25;;
28343;SDS011;15597;50.914;6.638;2022-10-31T14:31:43;10.15;;;3.80;;
28343;SDS011;15597;50.914;6.638;2022-10-31T14:39:39;15.18;;;4.00;;
28343;SDS011;15597;50.914;6.638;2022-10-31T14:53:24;11.68;;;3.90;;
28343;SDS011;15597;50.914;6.638;2022-10-31T14:55:54;14.98;;;3.80;;
28343;SDS011;15597;50.914;6.638;2022-10-31T14:58:22;22.77;;;4.35;;
28343;SDS011;15597;50.914;6.638;2022-10-31T15:00:55;12.48;;;3.97;;
28343;SDS011;15597;50.914;6.638;2022-10-31T15:03:27;15.30;;;4.80;;
28343;SDS011;15597;50.914;6.638;2022-10-31T15:05:58;13.75;;;3.80;;
28343;SDS011;15597;50.914;6.638;2022-10-31T15:11:25;11.82;;;3.50;;
28343;SDS011;15597;50.914;6.638;2022-10-31T15:16:25;12.90;;;3.53;;
28343;SDS011;15597;50.914;6.638;2022-10-31T15:18:56;11.90;;;3.33;;
28343;SDS011;15597;50.914;6.638;2022-10-31T15:21:25;15.85;;;4.07;;
28343;SDS011;15597;50.914;6.638;2022-10-31T15:23:54;12.85;;;3.33;;
28343;SDS011;15597;50.914;6.638;2022-10-31T15:26:22;16.90;;;3.53;;
28343;SDS011;15597;50.914;6.638;2022-10-31T15:28:57;10.30;;;3.65;;
28343;SDS011;15597;50.914;6.638;2022-10-31T15:31:30;14.95;;;3.45;;
28343;SDS011;15597;50.914;6.638;2022-10-31T15:33:58;9.95;;;3.53;;
28343;SDS011;15597;50.914;6.638;2022-10-31T15:36:31;13.63;;;3.80;;
28343;SDS011;15597;50.914;6.638;2022-10-31T15:38:58;14.38;;;3.75;;
28343;SDS011;15597;50.914;6.638;2022-10-31T15:41:28;10.68;;;3.63;;
28343;SDS011;15597;50.914;6.638;2022-10-31T15:43:59;20.08;;;3.42;;
28343;SDS011;15597;50.914;6.638;2022-10-31T15:46:28;11.10;;;3.53;;
28343;SDS011;15597;50.914;6.638;2022-10-31T15:48:54;12.05;;;3.53;;
28343;SDS011;15597;50.914;6.638;2022-10-31T15:51:27;9.60;;;3.45;;
28343;SDS011;15597;50.914;6.638;2022-10-31T15:53:55;14.20;;;3.20;;
28343;SDS011;15597;50.914;6.638;2022-10-31T15:56:23;8.73;;;3.70;;
28343;SDS011;15597;50.914;6.638;2022-10-31T15:58:52;12.10;;;3.33;;
28343;SDS011;15597;50.914;6.638;2022-10-31T16:01:20;15.25;;;3.38;;
28343;SDS011;15597;50.914;6.638;2022-10-31T16:04:14;11.48;;;3.65;;
28343;SDS011;15597;50.914;6.638;2022-10-31T16:06:56;11.65;;;3.60;;
28343;SDS011;15597;50.914;6.638;2022-10-31T16:09:59;11.07;;;3.53;;
28343;SDS011;15597;50.914;6.638;2022-10-31T16:12:36;10.32;;;3.42;;
28343;SDS011;15597;50.914;6.638;2022-10-31T16:15:12;9.43;;;3.40;;
28343;SDS011;15597;50.914;6.638;2022-10-31T16:17:40;10.15;;;3.30;;
28343;SDS011;15597;50.914;6.638;2022-10-31T16:20:16;9.52;;;3.60;;
28343;SDS011;15597;50.914;6.638;2022-10-31T16:22:48;13.98;;;3.92;;
28343;SDS011;15597;50.914;6.638;2022-10-31T16:25:24;9.55;;;3.58;;
28343;SDS011;15597;50.914;6.638;2022-10-31T16:27:53;10.45;;;3.88;;
28343;SDS011;15597;50.914;6.638;2022-10-31T16:30:29;8.57;;;4.18;;
28343;SDS011;15597;50.914;6.638;2022-10-31T16:33:19;10.60;;;3.22;;
28343;SDS011;15597;50.914;6.638;2022-10-31T16:36:28;14.35;;;3.55;;
28343;SDS011;15597;50.914;6.638;2022-10-31T16:39:05;11.95;;;3.60;;
28343;SDS011;15597;50.914;6.638;2022-10-31T16:41:32;10.27;;;3.75;;
28343;SDS011;15597;50.914;6.638;2022-10-31T16:44:03;11.10;;;3.70;;
28343;SDS011;15597;50.914;6.638;2022-10-31T16:46:31;10.65;;;3.40;;
28343;SDS011;15597;50.914;6.638;2022-10-31T16:48:57;9.75;;;3.45;;
28343;SDS011;15597;50.914;6.638;2022-10-31T16:51:22;12.63;;;4.05;;
28343;SDS011;15597;50.914;6.638;2022-10-31T16:53:50;9.45;;;3.60;;
28343;SDS011;15597;50.914;6.638;2022-10-31T16:56:17;10.85;;;3.15;;
28343;SDS011;15597;50.914;6.638;2022-10-31T16:58:49;9.55;;;3.42;;
28343;SDS011;15597;50.914;6.638;2022-10-31T17:01:14;17.38;;;3.42;;
28343;SDS011;15597;50.914;6.638;2022-10-31T17:03:41;10.20;;;3.30;;
28343;SDS011;15597;50.914;6.638;2022-10-31T17:06:09;10.88;;;3.33;;
28343;SDS011;15597;50.914;6.638;2022-10-31T17:08:37;9.35;;;3.03;;
28343;SDS011;15597;50.914;6.638;2022-10-31T17:11:02;11.63;;;3.28;;
28343;SDS011;15597;50.914;6.638;2022-10-31T17:13:29;10.60;;;3.40;;
28343;SDS011;15597;50.914;6.638;2022-10-31T17:18:25;11.68;;;3.30;;
28343;SDS011;15597;50.914;6.638;2022-10-31T17:20:58;8.98;;;3.25;;
28343;SDS011;15597;50.914;6.638;2022-10-31T17:23:28;12.40;;;4.00;;
28343;SDS011;15597;50.914;6.638;2022-10-31T17:25:55;8.55;;;3.65;;
28343;SDS011;15597;50.914;6.638;2022-10-31T17:28:20;9.70;;;3.33;;
28343;SDS011;15597;50.914;6.638;2022-10-31T17:30:46;9.80;;;3.50;;
28343;SDS011;15597;50.914;6.638;2022-10-31T17:33:12;15.77;;;3.65;;
28343;SDS011;15597;50.914;6.638;2022-10-31T17:35:39;9.55;;;4.40;;
28343;SDS011;15597;50.914;6.638;2022-10-31T17:38:09;14.02;;;5.10;;
28343;SDS011;15597;50.914;6.638;2022-10-31T17:40:36;12.30;;;4.25;;
28343;SDS011;15597;50.914;6.638;2022-10-31T17:45:28;10.27;;;4.13;;
28343;SDS011;15597;50.914;6.638;2022-10-31T17:47:54;9.73;;;3.67;;
28343;SDS011;15597;50.914;6.638;2022-10-31T17:50:21;10.05;;;3.90;;
28343;SDS011;15597;50.914;6.638;2022-10-31T17:52:48;10.07;;;3.63;;
28343;SDS011;15597;50.914;6.638;2022-10-31T17:55:14;8.38;;;3.40;;
28343;SDS011;15597;50.914;6.638;2022-10-31T17:57:41;9.93;;;3.45;;